Weather in selectable METAR weather stations

1) Select the Continent / Group:

[Europe]  [Asia]  [Africa]  [North America]  [South America]  
[Central America and Caribbean]  [Oceania]  [Antarctica]  
2) Select the Weather station (City):


METAR = SABE 211300Z 18004KT 100V230 CAVOK 11/M02 Q1027 NOSIG

STATIONSABE
NAMEBuenos Aires/Newbery, --, AG
OBSERVED21.09.2020 10:00 (21.09.2020 13:00 UTC), 22 min ago
TEMPERATURE11.0°C ( 52°F)
WINDCHILL10.3 °C (51 °F)
WINDS (180 degrees) at 5 MPH (4 knots; 2.1 m/s)
HUMIDITY40%
PRESSURE1026.8 hPa
Click here to search the weather station or to give the station identifier
(four-character ICAO Location Indicator) for weather data.